createdAt,value
2022-12-15T00:00:40.946Z,2.07
2022-12-15T00:03:27.251Z,4.20
2022-12-15T00:06:13.550Z,15.00
2022-12-15T00:08:59.903Z,3.65
2022-12-15T00:11:45.900Z,2.55
2022-12-15T00:14:32.063Z,6.95
2022-12-15T00:17:18.544Z,2.95
2022-12-15T00:22:50.947Z,3.00
2022-12-15T00:25:37.054Z,7.90
2022-12-15T00:28:23.240Z,1.95
2022-12-15T00:31:09.386Z,3.50
2022-12-15T00:33:55.525Z,6.40
2022-12-15T00:36:41.779Z,3.38
2022-12-15T00:39:09.344Z,3.25
2022-12-15T00:41:37.070Z,9.90
2022-12-15T00:44:07.379Z,3.50
2022-12-15T00:47:00.539Z,7.68
2022-12-15T00:49:48.742Z,2.67
2022-12-15T00:52:36.970Z,4.22
2022-12-15T00:55:24.123Z,3.35
2022-12-15T00:58:12.673Z,1.77
2022-12-15T01:00:58.749Z,3.67
2022-12-15T01:03:45.033Z,3.22
2022-12-15T01:06:34.430Z,3.92
2022-12-15T01:09:22.066Z,2.78
2022-12-15T01:12:08.131Z,3.90
2022-12-15T01:14:54.304Z,4.13
2022-12-15T01:17:40.997Z,5.80
2022-12-15T01:20:18.366Z,2.05
2022-12-15T01:22:46.857Z,6.80
2022-12-15T01:25:16.750Z,5.50
2022-12-15T01:27:45.302Z,3.10
2022-12-15T01:30:15.849Z,6.10
2022-12-15T01:32:46.194Z,3.10
2022-12-15T01:35:14.506Z,3.85
2022-12-15T01:37:42.177Z,10.02
2022-12-15T01:40:32.737Z,3.33
2022-12-15T01:43:00.293Z,2.47
2022-12-15T01:45:30.535Z,3.95
2022-12-15T01:48:25.169Z,7.57
2022-12-15T01:51:06.023Z,2.97
2022-12-15T01:53:38.070Z,7.20
2022-12-15T01:56:08.383Z,5.68
2022-12-15T01:58:37.855Z,5.28
2022-12-15T02:01:06.176Z,5.53
2022-12-15T02:03:34.620Z,7.75
2022-12-15T02:06:10.722Z,3.75
2022-12-15T02:08:39.021Z,4.95
2022-12-15T02:11:28.315Z,5.47
2022-12-15T02:14:11.145Z,4.97
2022-12-15T02:17:06.726Z,2.40
2022-12-15T02:19:49.417Z,2.70
2022-12-15T02:22:35.257Z,6.43
2022-12-15T02:25:21.129Z,3.33
2022-12-15T02:28:13.444Z,2.67
2022-12-15T02:31:20.274Z,3.28
2022-12-15T02:34:04.167Z,6.60
2022-12-15T02:36:42.847Z,3.28
2022-12-15T02:39:12.657Z,5.43
2022-12-15T02:41:43.457Z,2.20
2022-12-15T02:44:29.348Z,4.28
2022-12-15T02:47:02.825Z,2.83
2022-12-15T02:49:33.327Z,4.80
2022-12-15T02:52:49.416Z,9.50
2022-12-15T02:55:33.938Z,2.38
2022-12-15T02:58:39.812Z,5.13
2022-12-15T03:01:24.955Z,2.33
2022-12-15T03:03:53.851Z,4.05
2022-12-15T03:06:21.573Z,4.68
2022-12-15T03:08:49.086Z,4.57
2022-12-15T03:11:16.646Z,3.78
2022-12-15T03:13:44.279Z,5.47
2022-12-15T03:16:12.408Z,5.25
2022-12-15T03:18:40.254Z,2.83
2022-12-15T03:21:08.483Z,10.95
2022-12-15T03:23:36.017Z,3.08
2022-12-15T03:26:03.742Z,4.05
2022-12-15T03:28:31.439Z,1.80
2022-12-15T03:30:59.159Z,2.33
2022-12-15T03:33:26.726Z,2.78
2022-12-15T03:35:54.488Z,2.35
2022-12-15T03:38:22.064Z,2.63
2022-12-15T03:40:49.768Z,6.68
2022-12-15T03:43:17.413Z,5.28
2022-12-15T03:45:45.065Z,4.15
2022-12-15T03:48:12.738Z,3.40
2022-12-15T03:50:40.933Z,2.88
2022-12-15T03:53:08.484Z,5.45
2022-12-15T03:55:36.385Z,2.58
2022-12-15T03:58:03.990Z,3.30
2022-12-15T04:00:31.595Z,4.13
2022-12-15T04:02:59.363Z,2.15
2022-12-15T04:05:30.132Z,5.75
2022-12-15T04:07:59.152Z,2.63
2022-12-15T04:10:33.947Z,3.75
2022-12-15T04:13:11.133Z,5.78
2022-12-15T04:15:40.331Z,3.00
2022-12-15T04:18:10.395Z,2.03
2022-12-15T04:20:40.176Z,6.45
2022-12-15T04:23:08.156Z,4.18
2022-12-15T04:25:55.255Z,6.10
2022-12-15T04:28:41.489Z,2.55
2022-12-15T04:31:31.464Z,2.28
2022-12-15T04:34:21.737Z,3.85
2022-12-15T04:37:10.468Z,2.70
2022-12-15T04:39:59.340Z,1.45
2022-12-15T04:42:46.149Z,2.40
2022-12-15T04:45:33.670Z,3.17
2022-12-15T04:48:19.816Z,1.45
2022-12-15T04:51:06.004Z,2.70
2022-12-15T04:53:52.386Z,3.25
2022-12-15T04:59:26.885Z,5.10
2022-12-15T05:02:13.575Z,3.38
2022-12-15T05:04:59.856Z,7.53
2022-12-15T05:07:46.448Z,3.90
2022-12-15T05:10:32.988Z,4.22
2022-12-15T05:13:23.962Z,5.95
2022-12-15T05:16:10.138Z,4.25
2022-12-15T05:18:56.345Z,4.90
2022-12-15T05:21:42.659Z,7.20
2022-12-15T05:24:32.131Z,5.47
2022-12-15T05:27:18.400Z,4.00
2022-12-15T05:30:04.954Z,4.22
2022-12-15T05:32:33.355Z,2.80
2022-12-15T05:35:25.995Z,6.47
2022-12-15T05:37:53.710Z,3.17
2022-12-15T05:40:21.202Z,9.32
2022-12-15T05:42:50.423Z,5.97
2022-12-15T05:45:18.096Z,3.35
2022-12-15T05:47:52.267Z,4.38
2022-12-15T05:50:21.046Z,20.95
2022-12-15T05:52:59.723Z,3.05
2022-12-15T05:55:35.053Z,4.13
2022-12-15T05:58:25.600Z,9.60
2022-12-15T06:00:53.431Z,5.88
2022-12-15T06:03:21.135Z,9.38
2022-12-15T06:05:54.646Z,5.22
2022-12-15T06:08:24.089Z,6.68
2022-12-15T06:10:54.797Z,4.25
2022-12-15T06:13:24.278Z,6.03
2022-12-15T06:16:11.012Z,2.80
2022-12-15T06:18:44.333Z,3.22
2022-12-15T06:21:26.596Z,2.85
2022-12-15T06:23:56.258Z,4.28
2022-12-15T06:26:39.404Z,3.72
2022-12-15T06:29:10.209Z,6.30
2022-12-15T06:31:39.016Z,7.40
2022-12-15T06:34:11.352Z,4.40
2022-12-15T06:36:44.001Z,6.80
2022-12-15T06:39:16.769Z,4.13
2022-12-15T06:41:45.412Z,6.93
2022-12-15T06:44:14.731Z,10.07
2022-12-15T06:46:43.055Z,4.18
2022-12-15T06:49:10.718Z,7.50
2022-12-15T06:51:38.437Z,11.93
2022-12-15T06:54:11.316Z,4.03
2022-12-15T06:56:42.486Z,4.57
2022-12-15T06:59:11.633Z,3.45
2022-12-15T07:01:39.563Z,8.68
2022-12-15T07:04:07.549Z,6.13
2022-12-15T07:06:37.362Z,25.92
2022-12-15T07:09:08.618Z,7.15
2022-12-15T07:11:39.789Z,3.55
2022-12-15T07:14:07.617Z,2.78
2022-12-15T07:16:35.323Z,3.00
2022-12-15T07:19:03.098Z,2.95
2022-12-15T07:21:30.915Z,6.10
2022-12-15T07:23:59.578Z,3.55
2022-12-15T07:26:28.312Z,10.93
2022-12-15T07:28:56.128Z,4.90
2022-12-15T07:31:24.493Z,3.47
2022-12-15T07:33:53.869Z,3.83
2022-12-15T07:36:21.670Z,2.38
2022-12-15T07:38:52.047Z,4.13
2022-12-15T07:41:22.714Z,5.88
2022-12-15T07:43:51.150Z,2.60
2022-12-15T07:46:19.182Z,7.97
2022-12-15T07:48:50.359Z,3.55
2022-12-15T07:51:21.659Z,4.60
2022-12-15T07:53:51.217Z,2.70
2022-12-15T07:56:19.844Z,2.53
2022-12-15T07:58:47.932Z,3.30
2022-12-15T08:01:16.052Z,1.70
2022-12-15T08:03:45.258Z,2.67
2022-12-15T08:06:16.398Z,2.75
2022-12-15T08:08:50.648Z,4.82
2022-12-15T08:11:24.990Z,5.38
2022-12-15T08:14:02.688Z,3.17
2022-12-15T08:16:30.714Z,5.07
2022-12-15T08:18:58.485Z,6.45
2022-12-15T08:21:26.056Z,7.63
2022-12-15T08:23:56.818Z,3.42
2022-12-15T08:26:30.077Z,3.67
2022-12-15T08:29:24.524Z,7.15
2022-12-15T08:31:49.016Z,8.70
2022-12-15T08:34:24.703Z,2.08
2022-12-15T08:36:52.382Z,3.08
2022-12-15T08:39:20.647Z,8.30
2022-12-15T08:41:48.344Z,4.57
2022-12-15T08:44:17.410Z,4.32
2022-12-15T08:46:45.275Z,6.35
2022-12-15T08:49:17.924Z,7.53
2022-12-15T08:51:52.493Z,10.27
2022-12-15T08:54:21.268Z,2.70
2022-12-15T08:56:52.483Z,4.85
2022-12-15T08:59:20.232Z,4.53
2022-12-15T09:01:48.140Z,2.95
2022-12-15T09:04:16.345Z,8.93
2022-12-15T09:06:44.080Z,12.63
2022-12-15T09:09:16.148Z,5.43
2022-12-15T09:11:43.758Z,3.72
2022-12-15T09:14:11.550Z,6.22
2022-12-15T09:16:39.140Z,4.85
2022-12-15T09:19:08.473Z,4.03
2022-12-15T09:21:40.249Z,7.22
2022-12-15T09:24:07.878Z,2.95
2022-12-15T09:26:35.574Z,5.82
2022-12-15T09:29:03.533Z,3.67
2022-12-15T09:31:33.692Z,4.50
2022-12-15T09:34:02.161Z,2.70
2022-12-15T09:36:32.867Z,6.18
2022-12-15T09:39:02.055Z,7.65
2022-12-15T09:41:36.428Z,5.47
2022-12-15T09:44:18.927Z,2.92
2022-12-15T09:46:50.280Z,3.75
2022-12-15T09:49:36.276Z,4.25
2022-12-15T09:52:11.599Z,5.65
2022-12-15T09:54:43.102Z,2.70
2022-12-15T09:57:16.876Z,5.43
2022-12-15T10:00:27.078Z,2.63
2022-12-15T10:03:33.143Z,2.05
2022-12-15T10:06:23.946Z,1.73
2022-12-15T10:08:55.998Z,4.25
2022-12-15T10:12:01.949Z,3.35
2022-12-15T10:14:46.221Z,4.57
2022-12-15T10:17:35.129Z,3.08
2022-12-15T10:20:12.682Z,3.53
2022-12-15T10:22:40.571Z,2.95
2022-12-15T10:25:16.265Z,4.15
2022-12-15T10:28:05.693Z,2.92
2022-12-15T10:30:34.347Z,4.60
2022-12-15T10:33:11.325Z,1.85
2022-12-15T10:35:40.643Z,2.47
2022-12-15T10:38:29.010Z,5.47
2022-12-15T10:41:01.047Z,5.60
2022-12-15T10:43:38.838Z,8.05
2022-12-15T10:46:18.996Z,5.82
2022-12-15T10:48:49.989Z,3.45
2022-12-15T10:51:27.191Z,4.85
2022-12-15T10:54:09.948Z,3.20
2022-12-15T10:56:53.595Z,3.35
2022-12-15T10:59:31.877Z,2.13
2022-12-15T11:05:15.859Z,2.40
2022-12-15T11:07:55.158Z,2.03
2022-12-15T11:10:52.796Z,2.17
2022-12-15T11:13:22.674Z,3.28
2022-12-15T11:15:55.168Z,2.60
2022-12-15T11:18:44.570Z,1.60
2022-12-15T11:21:21.791Z,1.60
2022-12-15T11:24:16.741Z,1.42
2022-12-15T11:27:08.534Z,4.85
2022-12-15T11:30:10.615Z,7.18
2022-12-15T11:32:46.930Z,3.00
2022-12-15T11:35:33.272Z,3.67
2022-12-15T11:38:16.506Z,2.25
2022-12-15T11:40:44.549Z,7.60
2022-12-15T11:43:18.794Z,11.43
2022-12-15T11:46:16.654Z,4.05
2022-12-15T11:49:18.482Z,3.90
2022-12-15T11:51:52.593Z,2.72
2022-12-15T11:54:29.792Z,2.95
2022-12-15T11:57:06.000Z,4.45
2022-12-15T11:59:53.402Z,2.90
2022-12-15T12:03:05.198Z,3.55
2022-12-15T12:05:50.875Z,5.75
2022-12-15T12:08:45.989Z,13.75
2022-12-15T12:11:42.907Z,2.00
2022-12-15T12:16:55.962Z,6.75
2022-12-15T12:19:24.980Z,10.50
2022-12-15T12:22:00.551Z,4.47
2022-12-15T12:24:38.601Z,2.53
2022-12-15T12:27:20.762Z,3.80
2022-12-15T12:30:02.477Z,1.98
2022-12-15T12:32:50.859Z,2.35
2022-12-15T12:35:34.114Z,2.40
2022-12-15T12:38:05.883Z,7.20
2022-12-15T12:40:59.091Z,2.78
2022-12-15T12:43:36.741Z,12.20
2022-12-15T12:46:10.178Z,3.17
2022-12-15T12:49:00.366Z,4.05
2022-12-15T12:51:39.813Z,6.45
2022-12-15T12:54:35.246Z,18.40
2022-12-15T12:57:11.899Z,8.10
2022-12-15T12:59:49.152Z,8.55
2022-12-15T13:02:25.950Z,9.98
2022-12-15T13:05:21.986Z,9.95
2022-12-15T13:08:10.913Z,6.40
2022-12-15T13:10:39.939Z,9.27
2022-12-15T13:13:37.726Z,14.50
2022-12-15T13:16:24.170Z,15.85
2022-12-15T13:19:09.815Z,17.17
2022-12-15T13:21:43.567Z,11.53
2022-12-15T13:24:26.473Z,13.10
2022-12-15T13:27:09.572Z,9.23
2022-12-15T13:30:01.897Z,6.30
2022-12-15T13:32:37.493Z,119.03
2022-12-15T13:35:15.135Z,41.45
2022-12-15T13:37:42.613Z,18.17
2022-12-15T13:40:35.227Z,12.82
2022-12-15T13:43:05.654Z,9.80
2022-12-15T13:45:50.307Z,22.08
2022-12-15T13:48:30.302Z,6.82
2022-12-15T13:50:58.243Z,16.63
2022-12-15T13:53:29.023Z,9.55
2022-12-15T13:56:18.769Z,31.92
2022-12-15T13:58:54.325Z,11.88
2022-12-15T14:01:31.787Z,11.23
2022-12-15T14:04:22.973Z,7.47
2022-12-15T14:07:02.319Z,5.95
2022-12-15T14:09:36.924Z,10.75
2022-12-15T14:12:08.053Z,11.57
2022-12-15T14:14:37.980Z,6.00
2022-12-15T14:17:09.777Z,14.30
2022-12-15T14:19:40.412Z,9.50
2022-12-15T14:22:29.396Z,14.18
2022-12-15T14:25:18.350Z,13.13
2022-12-15T14:27:50.821Z,14.57
2022-12-15T14:30:22.793Z,10.95
2022-12-15T14:33:04.381Z,13.25
2022-12-15T14:35:38.969Z,20.02
2022-12-15T14:38:11.380Z,11.60
2022-12-15T14:40:40.391Z,17.20
2022-12-15T14:43:18.850Z,10.45
2022-12-15T14:45:49.231Z,24.88
2022-12-15T14:48:45.078Z,26.38
2022-12-15T14:51:14.552Z,25.17
2022-12-15T14:53:48.013Z,20.45
2022-12-15T14:56:29.468Z,20.40
2022-12-15T14:59:17.321Z,14.63
2022-12-15T15:02:00.802Z,18.10
2022-12-15T15:03:11.194Z,3.15
2022-12-15T15:04:33.705Z,14.18
2022-12-15T15:07:22.469Z,11.38
2022-12-15T15:09:51.634Z,42.20
2022-12-15T15:12:21.782Z,31.73
2022-12-15T15:14:58.152Z,29.10
2022-12-15T15:20:04.009Z,18.27
2022-12-15T15:22:45.402Z,14.15
2022-12-15T15:25:43.659Z,6.95
2022-12-15T15:28:23.091Z,8.75
2022-12-15T15:30:52.474Z,6.15
2022-12-15T15:33:25.296Z,18.10
2022-12-15T15:35:58.582Z,8.77
2022-12-15T15:38:34.809Z,4.35
2022-12-15T15:41:23.766Z,7.90
2022-12-15T15:43:51.957Z,6.82
2022-12-15T15:46:25.773Z,5.75
2022-12-15T15:49:00.893Z,19.42
2022-12-15T15:51:30.402Z,16.77
2022-12-15T15:54:04.696Z,25.08
2022-12-15T15:56:32.566Z,17.20
2022-12-15T15:59:09.893Z,22.38
2022-12-15T16:01:37.607Z,25.98
2022-12-15T16:04:06.703Z,26.33
2022-12-15T16:06:34.860Z,26.70
2022-12-15T16:09:02.557Z,30.45
2022-12-15T16:11:30.991Z,26.00
2022-12-15T16:13:58.586Z,28.50
2022-12-15T16:16:32.150Z,31.30
2022-12-15T16:18:59.951Z,29.83
2022-12-15T16:21:28.276Z,22.38
2022-12-15T16:23:57.887Z,33.20
2022-12-15T16:26:30.542Z,23.45
2022-12-15T16:28:58.178Z,38.80
2022-12-15T16:31:41.204Z,41.28
2022-12-15T16:34:09.601Z,51.75
2022-12-15T16:36:37.274Z,32.03
2022-12-15T16:39:06.250Z,40.22
2022-12-15T16:41:34.073Z,29.58
2022-12-15T16:44:01.570Z,24.58
2022-12-15T16:46:29.178Z,18.05
2022-12-15T16:48:56.867Z,18.40
2022-12-15T16:51:37.085Z,11.13
2022-12-15T16:54:04.949Z,16.00
2022-12-15T16:56:33.170Z,15.90
2022-12-15T16:59:31.288Z,10.63
2022-12-15T17:01:48.979Z,15.23
2022-12-15T17:04:16.797Z,14.00
2022-12-15T17:06:44.685Z,15.02
2022-12-15T17:09:22.003Z,16.40
2022-12-15T17:11:50.674Z,9.65
2022-12-15T17:14:18.214Z,17.92
2022-12-15T17:16:45.960Z,15.32
2022-12-15T17:19:17.660Z,16.88
2022-12-15T17:21:52.650Z,14.33
2022-12-15T17:24:22.355Z,16.42
2022-12-15T17:26:50.481Z,31.75
2022-12-15T17:29:25.381Z,24.20
2022-12-15T17:31:53.046Z,30.42
2022-12-15T17:34:30.684Z,22.42
2022-12-15T17:37:04.334Z,24.83
2022-12-15T17:39:34.343Z,27.30
2022-12-15T17:42:15.348Z,26.60
2022-12-15T17:44:52.472Z,32.22
2022-12-15T17:47:20.078Z,29.17
2022-12-15T17:49:47.808Z,33.10
2022-12-15T17:52:29.939Z,25.98
2022-12-15T17:54:57.898Z,24.75
2022-12-15T17:57:25.738Z,29.00
2022-12-15T17:59:53.574Z,35.50
2022-12-15T18:02:21.198Z,28.52
2022-12-15T18:04:48.828Z,28.60
2022-12-15T18:07:20.881Z,26.83
2022-12-15T18:09:50.123Z,33.50
2022-12-15T18:12:24.244Z,24.75
2022-12-15T18:14:56.154Z,28.20
2022-12-15T18:17:25.503Z,24.95
2022-12-15T18:20:04.868Z,21.67
2022-12-15T18:22:32.462Z,23.23
2022-12-15T18:25:00.014Z,19.92
2022-12-15T18:27:29.223Z,32.35
2022-12-15T18:29:57.214Z,22.75
2022-12-15T18:32:26.934Z,23.23
2022-12-15T18:34:58.466Z,33.97
2022-12-15T18:37:26.263Z,21.33
2022-12-15T18:40:04.492Z,24.42
2022-12-15T18:42:33.702Z,19.63
2022-12-15T18:45:13.146Z,11.68
2022-12-15T18:47:41.896Z,23.08
2022-12-15T18:50:19.421Z,27.45
2022-12-15T18:53:02.862Z,25.00
2022-12-15T18:55:33.346Z,23.67
2022-12-15T18:58:34.087Z,33.38
2022-12-15T19:01:07.639Z,18.98
2022-12-15T19:03:37.750Z,18.38
2022-12-15T19:06:26.200Z,15.45
2022-12-15T19:08:54.335Z,25.98
2022-12-15T19:11:32.752Z,32.15
2022-12-15T19:14:03.079Z,24.77
2022-12-15T19:16:51.185Z,19.67
2022-12-15T19:20:10.221Z,15.02
2022-12-15T19:28:15.649Z,34.60
2022-12-15T19:31:03.755Z,18.40
2022-12-15T19:33:31.771Z,22.15
2022-12-15T19:36:00.044Z,18.38
2022-12-15T19:38:31.104Z,12.95
2022-12-15T19:41:01.386Z,12.80
2022-12-15T19:43:33.369Z,17.98
2022-12-15T19:46:05.440Z,27.50
2022-12-15T19:48:33.462Z,25.50
2022-12-15T19:51:01.535Z,21.80
2022-12-15T19:53:31.186Z,22.50
2022-12-15T19:56:01.821Z,28.00
2022-12-15T19:58:34.582Z,31.35
2022-12-15T20:01:12.647Z,33.38
2022-12-15T20:03:45.156Z,41.47
2022-12-15T20:06:19.586Z,38.75
2022-12-15T20:08:50.669Z,31.13
2022-12-15T20:11:24.321Z,23.00
2022-12-15T20:13:53.182Z,19.13
2022-12-15T20:16:21.846Z,10.95
2022-12-15T20:18:56.239Z,13.32
2022-12-15T20:21:28.676Z,6.55
2022-12-15T20:24:03.687Z,9.07
2022-12-15T20:26:32.087Z,11.07
2022-12-15T20:28:59.721Z,8.88
2022-12-15T20:31:27.561Z,9.55
2022-12-15T20:33:57.523Z,8.70
2022-12-15T20:36:31.152Z,9.20
2022-12-15T20:38:59.095Z,14.13
2022-12-15T20:41:29.146Z,9.00
2022-12-15T20:43:58.033Z,11.38
2022-12-15T20:46:32.046Z,8.50
2022-12-15T20:49:00.021Z,9.98
2022-12-15T20:51:33.073Z,7.35
2022-12-15T20:54:02.919Z,7.15
2022-12-15T20:56:30.816Z,5.47
2022-12-15T20:58:59.224Z,4.43
2022-12-15T21:01:31.993Z,7.57
2022-12-15T21:04:02.364Z,5.22
2022-12-15T21:06:30.738Z,7.10
2022-12-15T21:09:03.204Z,18.83
2022-12-15T21:11:32.898Z,17.30
2022-12-15T21:14:04.326Z,7.47
2022-12-15T21:16:34.231Z,6.32
2022-12-15T21:19:20.803Z,8.65
2022-12-15T21:21:55.134Z,13.40
2022-12-15T21:24:25.694Z,7.65
2022-12-15T21:27:05.498Z,4.53
2022-12-15T21:29:34.480Z,5.97
2022-12-15T21:32:02.236Z,8.05
2022-12-15T21:34:29.960Z,8.15
2022-12-15T21:36:58.041Z,11.70
2022-12-15T21:39:34.176Z,7.68
2022-12-15T21:44:32.242Z,6.32
2022-12-15T21:47:00.183Z,4.82
2022-12-15T21:49:27.853Z,4.95
2022-12-15T21:52:00.836Z,5.25
2022-12-15T21:54:34.820Z,7.35
2022-12-15T21:57:02.872Z,8.77
2022-12-15T21:59:32.654Z,6.55
2022-12-15T22:02:00.743Z,4.25
2022-12-15T22:04:34.113Z,13.75
2022-12-15T22:07:02.270Z,10.23
2022-12-15T22:09:29.991Z,7.85
2022-12-15T22:11:58.089Z,5.10
2022-12-15T22:14:32.005Z,6.38
2022-12-15T22:17:01.574Z,6.80
2022-12-15T22:19:29.298Z,5.00
2022-12-15T22:21:57.045Z,5.68
2022-12-15T22:24:24.735Z,3.88
2022-12-15T22:26:52.446Z,4.88
2022-12-15T22:29:22.349Z,7.00
2022-12-15T22:31:50.616Z,4.45
2022-12-15T22:34:23.045Z,7.38
2022-12-15T22:36:51.984Z,3.50
2022-12-15T22:39:20.065Z,7.95
2022-12-15T22:41:53.657Z,5.15
2022-12-15T22:44:23.889Z,3.00
2022-12-15T22:46:54.136Z,5.40
2022-12-15T22:49:27.506Z,5.32
2022-12-15T22:51:56.435Z,15.48
2022-12-15T22:54:26.981Z,8.85
2022-12-15T22:57:04.037Z,6.70
2022-12-15T22:59:43.242Z,2.63
2022-12-15T23:02:11.515Z,4.30
2022-12-15T23:04:42.384Z,2.90
2022-12-15T23:07:12.800Z,3.78
2022-12-15T23:09:40.366Z,3.97
2022-12-15T23:12:08.161Z,5.88
2022-12-15T23:15:04.737Z,3.20
2022-12-15T23:17:32.456Z,5.60
2022-12-15T23:20:00.076Z,5.07
2022-12-15T23:22:27.713Z,8.80
2022-12-15T23:24:55.756Z,6.72
2022-12-15T23:27:23.415Z,2.70
2022-12-15T23:29:51.056Z,2.30
2022-12-15T23:32:19.866Z,2.70
2022-12-15T23:34:47.481Z,2.50
2022-12-15T23:37:15.128Z,6.00
2022-12-15T23:39:42.829Z,3.88
2022-12-15T23:42:11.711Z,3.15
2022-12-15T23:44:39.900Z,2.40
2022-12-15T23:47:08.102Z,5.68
2022-12-15T23:49:35.917Z,2.05
2022-12-15T23:52:03.778Z,1.58
2022-12-15T23:54:31.498Z,7.10
2022-12-15T23:56:59.158Z,3.35
2022-12-15T23:59:26.723Z,4.07
